Time;durP1;ratioP1;P1;durP2;ratioP2;P2;SDS_P1;SDS_P2;PMS_P1;PMS_P2;Temp;Humidity;BMP_temperature;BMP_pressure;BME280_temperature;BME280_humidity;BME280_pressure;Samples;Min_cycle;Max_cycle;Signal;HPM_P1;HPM_P2
2022/12/22 03:25:59;;;;;;;0.20;0.20;;;;;;;;;;5037070;28;20045;-86
2022/12/22 03:28:28;;;;;;;0.20;0.20;;;;;;;;;;5045420;28;20041;-88
2022/12/22 03:30:58;;;;;;;0.20;0.20;;;;;;;;;;5045420;28;20044;-87
2022/12/22 03:33:28;;;;;;;0.50;0.50;;;;;;;;;;5047644;28;21192;-86
2022/12/22 03:35:56;;;;;;;0.45;0.45;;;;;;;;;;5044251;28;20041;-87
2022/12/22 03:38:25;;;;;;;0.32;0.32;;;;;;;;;;5050389;28;20051;-86
2022/12/22 03:40:53;;;;;;;0.65;0.20;;;;;;;;;;5052239;28;20493;-86
2022/12/22 03:49:10;;;;;;;0.38;0.38;;;;;;;;;;5048079;28;20059;-86
2022/12/22 03:51:40;;;;;;;0.20;0.20;;;;;;;;;;5054279;28;20132;-86
2022/12/22 03:54:09;;;;;;;0.50;0.50;;;;;;;;;;5042817;28;20041;-86
2022/12/22 03:56:37;;;;;;;1.27;0.68;;;;;;;;;;5037507;28;20051;-87
2022/12/22 03:59:06;;;;;;;0.30;0.30;;;;;;;;;;5049173;28;20056;-86
2022/12/22 04:01:37;;;;;;;0.13;0.13;;;;;;;;;;5043286;28;20072;-86
2022/12/22 04:04:07;;;;;;;0.55;0.55;;;;;;;;;;5043463;28;20084;-86
2022/12/22 04:06:35;;;;;;;0.13;0.13;;;;;;;;;;5046614;28;20061;-86
2022/12/22 04:09:04;;;;;;;0.22;0.22;;;;;;;;;;5048844;28;20045;-84
2022/12/22 04:14:21;;;;;;;0.20;0.20;;;;;;;;;;5054453;28;20147;-86
2022/12/22 04:16:52;;;;;;;0.30;0.28;;;;;;;;;;5049557;28;20060;-86
2022/12/22 04:19:23;;;;;;;0.20;0.20;;;;;;;;;;5049466;28;20045;-87
2022/12/22 04:21:52;;;;;;;0.15;0.15;;;;;;;;;;5046482;28;20072;-87
2022/12/22 04:24:21;;;;;;;0.10;0.10;;;;;;;;;;5049509;28;20056;-86
2022/12/22 04:26:49;;;;;;;0.35;0.35;;;;;;;;;;5045280;28;20163;-85
2022/12/22 04:29:18;;;;;;;0.55;0.30;;;;;;;;;;5049162;28;20049;-86
2022/12/22 04:31:46;;;;;;;0.82;0.30;;;;;;;;;;5048560;28;20053;-86
2022/12/22 04:34:14;;;;;;;0.10;0.10;;;;;;;;;;5043573;28;20072;-85
2022/12/22 04:36:44;;;;;;;0.20;0.20;;;;;;;;;;5047512;28;20110;-84
2022/12/22 04:39:12;;;;;;;0.20;0.20;;;;;;;;;;5050188;28;20060;-85
2022/12/22 04:41:41;;;;;;;0.22;0.22;;;;;;;;;;5045035;28;20385;-84
2022/12/22 04:44:09;;;;;;;0.10;0.10;;;;;;;;;;5031158;28;20538;-84
2022/12/22 04:46:37;;;;;;;0.35;0.35;;;;;;;;;;5047108;28;20044;-88
2022/12/22 04:49:05;;;;;;;0.10;0.10;;;;;;;;;;5046074;28;20764;-85
2022/12/22 04:51:34;;;;;;;0.32;0.32;;;;;;;;;;5039216;28;20138;-84
2022/12/22 04:54:04;;;;;;;0.20;0.20;;;;;;;;;;5048660;28;20056;-86
2022/12/22 04:56:32;;;;;;;0.22;0.22;;;;;;;;;;5048947;28;20045;-85
2022/12/22 04:59:01;;;;;;;0.60;0.60;;;;;;;;;;5049340;28;20049;-85
2022/12/22 05:01:29;;;;;;;0.40;0.22;;;;;;;;;;5045935;28;20356;-84
2022/12/22 05:03:57;;;;;;;0.65;0.63;;;;;;;;;;5043945;28;20049;-85
2022/12/22 05:06:25;;;;;;;0.22;0.22;;;;;;;;;;5045585;28;20043;-85
2022/12/22 05:08:54;;;;;;;0.20;0.20;;;;;;;;;;5048938;28;20040;-84
2022/12/22 05:11:23;;;;;;;0.30;0.30;;;;;;;;;;5045725;28;20490;-85
2022/12/22 05:13:52;;;;;;;0.25;0.25;;;;;;;;;;5039961;28;20059;-85
2022/12/22 05:16:20;;;;;;;0.20;0.20;;;;;;;;;;5040542;28;20049;-84
2022/12/22 05:18:48;;;;;;;0.15;0.15;;;;;;;;;;5047777;28;20064;-85
2022/12/22 05:21:18;;;;;;;0.15;0.15;;;;;;;;;;5045675;28;20053;-84
2022/12/22 05:23:46;;;;;;;0.65;0.65;;;;;;;;;;5042426;28;20308;-84
2022/12/22 05:26:15;;;;;;;0.40;0.40;;;;;;;;;;5038361;28;20501;-85
2022/12/22 05:28:46;;;;;;;0.10;0.10;;;;;;;;;;5043780;28;20053;-85
2022/12/22 05:31:16;;;;;;;0.10;0.10;;;;;;;;;;5036937;28;20069;-85
2022/12/22 05:33:45;;;;;;;0.20;0.20;;;;;;;;;;5041345;28;20490;-89
2022/12/22 05:36:13;;;;;;;0.85;0.38;;;;;;;;;;5039454;28;20056;-88
2022/12/22 05:38:43;;;;;;;0.10;0.10;;;;;;;;;;5046638;28;20061;-85
2022/12/22 05:41:12;;;;;;;0.20;0.20;;;;;;;;;;5043239;28;20049;-86
2022/12/22 05:43:40;;;;;;;0.17;0.17;;;;;;;;;;5043443;28;20053;-85
2022/12/22 05:46:12;;;;;;;0.38;0.38;;;;;;;;;;5044980;28;20056;-85
2022/12/22 05:48:40;;;;;;;0.10;0.10;;;;;;;;;;5045794;28;20061;-85
2022/12/22 05:51:09;;;;;;;1.27;0.50;;;;;;;;;;5040270;28;20044;-85
2022/12/22 05:53:38;;;;;;;0.17;0.17;;;;;;;;;;5041665;28;20048;-85
2022/12/22 05:56:08;;;;;;;0.82;0.82;;;;;;;;;;5047921;28;20057;-85
2022/12/22 05:58:38;;;;;;;0.10;0.10;;;;;;;;;;5041430;28;20044;-85
2022/12/22 06:01:06;;;;;;;0.10;0.10;;;;;;;;;;5042808;28;20473;-85
2022/12/22 06:03:36;;;;;;;0.20;0.20;;;;;;;;;;5047039;28;20045;-85
2022/12/22 06:06:05;;;;;;;0.10;0.10;;;;;;;;;;5043194;28;20509;-85
2022/12/22 06:08:33;;;;;;;0.68;0.20;;;;;;;;;;5040032;28;20045;-86
2022/12/22 06:11:02;;;;;;;0.10;0.10;;;;;;;;;;5040944;28;20051;-86
2022/12/22 06:13:30;;;;;;;0.30;0.30;;;;;;;;;;5044346;28;20252;-86
2022/12/22 06:15:59;;;;;;;0.20;0.20;;;;;;;;;;5046222;28;20597;-85
2022/12/22 06:18:27;;;;;;;0.30;0.30;;;;;;;;;;5039094;28;20492;-85
2022/12/22 06:20:57;;;;;;;0.63;0.30;;;;;;;;;;5034421;28;20144;-88
2022/12/22 06:23:25;;;;;;;0.10;0.10;;;;;;;;;;5037825;28;20486;-87
2022/12/22 06:25:54;;;;;;;0.10;0.10;;;;;;;;;;5039345;28;20048;-86
2022/12/22 06:28:23;;;;;;;0.28;0.28;;;;;;;;;;5039550;28;20045;-86
2022/12/22 06:30:51;;;;;;;0.10;0.10;;;;;;;;;;5041704;28;20493;-85
2022/12/22 06:33:19;;;;;;;2.05;0.60;;;;;;;;;;5035362;28;20045;-86
2022/12/22 06:35:48;;;;;;;1.60;1.45;;;;;;;;;;5043776;28;20053;-87
2022/12/22 06:38:26;;;;;;;0.25;0.20;;;;;;;;;;5041430;28;20375;-84
2022/12/22 06:40:55;;;;;;;0.28;0.28;;;;;;;;;;5042340;28;20465;-86
2022/12/22 06:43:22;;;;;;;0.20;0.20;;;;;;;;;;5043455;28;20081;-86
2022/12/22 06:45:51;;;;;;;0.22;0.22;;;;;;;;;;5046302;28;20045;-83
2022/12/22 06:48:19;;;;;;;0.10;0.10;;;;;;;;;;5047925;28;20156;-86
2022/12/22 06:50:48;;;;;;;0.30;0.30;;;;;;;;;;5045331;28;20049;-86
2022/12/22 06:53:16;;;;;;;0.10;0.10;;;;;;;;;;5047726;28;20065;-84
2022/12/22 06:55:46;;;;;;;0.13;0.13;;;;;;;;;;5044118;28;20052;-88
2022/12/22 06:58:14;;;;;;;0.32;0.32;;;;;;;;;;5040148;28;20143;-88
2022/12/22 07:00:47;;;;;;;0.85;0.20;;;;;;;;;;5046198;28;20361;-85
2022/12/22 07:03:15;;;;;;;0.70;0.32;;;;;;;;;;5042507;28;20806;-84
2022/12/22 07:05:47;;;;;;;0.13;0.13;;;;;;;;;;5041607;28;20425;-82
2022/12/22 07:08:18;;;;;;;0.85;0.65;;;;;;;;;;5028699;28;20466;-85
2022/12/22 07:11:00;;;;;;;0.10;0.10;;;;;;;;;;5046046;28;20053;-87
2022/12/22 07:13:30;;;;;;;0.10;0.10;;;;;;;;;;5049889;28;20459;-87
2022/12/22 07:15:59;;;;;;;3.83;0.77;;;;;;;;;;5042177;28;20088;-85
2022/12/22 07:18:30;;;;;;;0.10;0.10;;;;;;;;;;5041400;28;20052;-85
2022/12/22 07:20:59;;;;;;;0.10;0.10;;;;;;;;;;5046383;28;20057;-85
2022/12/22 07:23:28;;;;;;;0.10;0.10;;;;;;;;;;5052330;28;20045;-89
2022/12/22 07:25:57;;;;;;;0.25;0.25;;;;;;;;;;5040268;28;20076;-91
2022/12/22 07:28:26;;;;;;;0.10;0.10;;;;;;;;;;5047768;28;20041;-85
2022/12/22 07:30:54;;;;;;;0.32;0.15;;;;;;;;;;5052300;28;20075;-85
2022/12/22 07:33:23;;;;;;;0.10;0.10;;;;;;;;;;5040169;28;20042;-85
2022/12/22 07:36:01;;;;;;;0.40;0.40;;;;;;;;;;5040507;28;20102;-85
2022/12/22 07:38:29;;;;;;;0.30;0.20;;;;;;;;;;5049351;28;20053;-87
2022/12/22 07:41:00;;;;;;;0.20;0.20;;;;;;;;;;5054448;28;20045;-87
2022/12/22 07:43:31;;;;;;;0.80;0.25;;;;;;;;;;5054015;28;20072;-85
2022/12/22 07:46:00;;;;;;;0.75;0.20;;;;;;;;;;5051343;28;20091;-85
2022/12/22 07:51:14;;;;;;;0.20;0.20;;;;;;;;;;5044255;28;20148;-85
2022/12/22 07:53:43;;;;;;;0.10;0.10;;;;;;;;;;5063086;28;20105;-91
2022/12/22 07:56:12;;;;;;;0.10;0.10;;;;;;;;;;5063504;28;20044;-86
2022/12/22 07:58:41;;;;;;;0.10;0.10;;;;;;;;;;5063075;28;20045;-90
2022/12/22 08:01:09;;;;;;;0.10;0.10;;;;;;;;;;5060986;28;20130;-89
2022/12/22 08:03:37;;;;;;;0.17;0.17;;;;;;;;;;5063523;28;20404;-87
2022/12/22 08:06:06;;;;;;;0.17;0.17;;;;;;;;;;5070572;28;20075;-87
2022/12/22 08:08:35;;;;;;;0.22;0.15;;;;;;;;;;5060052;28;20079;-84
2022/12/22 08:11:03;;;;;;;0.10;0.10;;;;;;;;;;5053820;28;20059;-87
2022/12/22 08:13:33;;;;;;;0.40;0.40;;;;;;;;;;5043347;28;20049;-85
2022/12/22 08:16:04;;;;;;;0.25;0.20;;;;;;;;;;5048654;28;20473;-90
2022/12/22 08:18:32;;;;;;;0.20;0.20;;;;;;;;;;5046080;28;20562;-85
2022/12/22 08:21:01;;;;;;;0.22;0.20;;;;;;;;;;5049065;28;20041;-84
2022/12/22 08:23:29;;;;;;;0.25;0.17;;;;;;;;;;5043079;28;20128;-84
2022/12/22 08:26:01;;;;;;;0.25;0.25;;;;;;;;;;5046280;28;20583;-86
2022/12/22 08:28:30;;;;;;;0.80;0.68;;;;;;;;;;5042733;28;20088;-87
2022/12/22 08:31:00;;;;;;;0.10;0.10;;;;;;;;;;5045735;28;20053;-86
2022/12/22 08:33:28;;;;;;;0.10;0.10;;;;;;;;;;5036741;28;20055;-89
2022/12/22 08:35:57;;;;;;;0.13;0.13;;;;;;;;;;5049923;28;20049;-86
2022/12/22 08:38:35;;;;;;;0.20;0.20;;;;;;;;;;5044860;28;20398;-90
2022/12/22 08:41:03;;;;;;;0.20;0.20;;;;;;;;;;5054555;28;20481;-86
2022/12/22 08:43:32;;;;;;;0.20;0.20;;;;;;;;;;5045422;28;20053;-86
2022/12/22 08:46:02;;;;;;;0.10;0.10;;;;;;;;;;5044797;28;20215;-87
2022/12/22 08:48:30;;;;;;;0.43;0.20;;;;;;;;;;5045106;28;20069;-86
2022/12/22 08:50:59;;;;;;;0.10;0.10;;;;;;;;;;5039010;28;20044;-87
2022/12/22 08:53:27;;;;;;;2.17;0.57;;;;;;;;;;5043982;28;20103;-87
2022/12/22 08:56:16;;;;;;;0.88;0.20;;;;;;;;;;5041561;28;20520;-86
2022/12/22 08:58:44;;;;;;;0.10;0.10;;;;;;;;;;5034766;28;20136;-88
2022/12/22 09:01:17;;;;;;;1.55;0.40;;;;;;;;;;5042637;28;20048;-89
2022/12/22 09:03:49;;;;;;;0.20;0.20;;;;;;;;;;5045245;28;20155;-89
2022/12/22 09:06:18;;;;;;;0.20;0.20;;;;;;;;;;5040570;28;20052;-87
2022/12/22 09:08:54;;;;;;;0.20;0.20;;;;;;;;;;5037611;28;20060;-86
2022/12/22 09:11:23;;;;;;;0.15;0.15;;;;;;;;;;5042945;28;20049;-87
2022/12/22 09:13:51;;;;;;;0.10;0.10;;;;;;;;;;5045414;28;20037;-86
2022/12/22 09:16:22;;;;;;;0.22;0.22;;;;;;;;;;5040373;28;20485;-87
2022/12/22 09:18:50;;;;;;;0.10;0.10;;;;;;;;;;5039717;28;20037;-88
2022/12/22 09:21:19;;;;;;;0.10;0.10;;;;;;;;;;5046491;28;20139;-87
2022/12/22 09:23:47;;;;;;;0.30;0.30;;;;;;;;;;5045808;28;20053;-86
2022/12/22 09:26:17;;;;;;;0.10;0.10;;;;;;;;;;5050885;28;20457;-87
2022/12/22 09:28:45;;;;;;;0.10;0.10;;;;;;;;;;5046905;28;20493;-87
2022/12/22 09:31:18;;;;;;;0.20;0.20;;;;;;;;;;5038766;28;20055;-87
2022/12/22 09:33:48;;;;;;;0.20;0.20;;;;;;;;;;5042998;28;20635;-86
2022/12/22 09:36:17;;;;;;;0.70;0.40;;;;;;;;;;5053872;28;20045;-90
2022/12/22 09:38:46;;;;;;;0.10;0.10;;;;;;;;;;5037846;28;20045;-87
2022/12/22 09:41:16;;;;;;;0.20;0.20;;;;;;;;;;5041737;28;20079;-87
2022/12/22 09:43:44;;;;;;;0.10;0.10;;;;;;;;;;5045257;28;20200;-87
2022/12/22 09:46:17;;;;;;;1.42;0.35;;;;;;;;;;5040973;28;20132;-86
2022/12/22 09:48:47;;;;;;;0.30;0.30;;;;;;;;;;5039835;28;20063;-87
2022/12/22 09:51:17;;;;;;;0.10;0.10;;;;;;;;;;5042904;28;20452;-87
2022/12/22 09:53:55;;;;;;;0.10;0.10;;;;;;;;;;5045664;28;20422;-87
2022/12/22 09:56:24;;;;;;;0.10;0.10;;;;;;;;;;5046910;28;20045;-86
2022/12/22 09:58:52;;;;;;;1.52;0.38;;;;;;;;;;5036303;28;20057;-91
2022/12/22 10:01:27;;;;;;;0.10;0.10;;;;;;;;;;5047735;28;20048;-87
2022/12/22 10:04:01;;;;;;;0.10;0.10;;;;;;;;;;5039467;28;20413;-87
2022/12/22 10:06:33;;;;;;;0.47;0.40;;;;;;;;;;5026075;28;20053;-86
2022/12/22 10:09:04;;;;;;;0.40;0.28;;;;;;;;;;5038967;28;20132;-86
2022/12/22 10:11:53;;;;;;;0.10;0.10;;;;;;;;;;5041607;28;20045;-87
2022/12/22 10:14:21;;;;;;;0.10;0.10;;;;;;;;;;5039171;28;20057;-88
2022/12/22 10:16:50;;;;;;;11.82;0.38;;;;;;;;;;5044697;28;20131;-87
2022/12/22 10:19:22;;;;;;;0.20;0.20;;;;;;;;;;5036398;28;20076;-86
2022/12/22 10:21:51;;;;;;;0.20;0.20;;;;;;;;;;5038127;28;20045;-87
2022/12/22 10:24:26;;;;;;;0.10;0.10;;;;;;;;;;5041509;28;20049;-86
2022/12/22 10:26:57;;;;;;;1.85;0.35;;;;;;;;;;5038257;28;20057;-87
2022/12/22 10:29:26;;;;;;;0.20;0.10;;;;;;;;;;5041330;28;20059;-88
2022/12/22 10:31:59;;;;;;;0.10;0.10;;;;;;;;;;5043558;28;20056;-87
2022/12/22 10:34:30;;;;;;;1.95;0.30;;;;;;;;;;5046955;28;20053;-88
2022/12/22 10:37:00;;;;;;;0.75;0.75;;;;;;;;;;5043182;28;20049;-90
2022/12/22 10:39:29;;;;;;;0.20;0.20;;;;;;;;;;5032743;28;20084;-87
2022/12/22 10:42:01;;;;;;;0.10;0.10;;;;;;;;;;5039019;28;20067;-90
2022/12/22 10:44:32;;;;;;;2.30;0.20;;;;;;;;;;5043189;28;20051;-87
2022/12/22 10:47:12;;;;;;;0.10;0.10;;;;;;;;;;5048757;28;20480;-87
2022/12/22 10:49:47;;;;;;;0.00;0.00;;;;;;;;;;5045468;28;20056;-88
2022/12/22 10:52:17;;;;;;;0.10;0.10;;;;;;;;;;5041720;28;20057;-87
2022/12/22 10:55:14;;;;;;;1.10;0.77;;;;;;;;;;5049999;28;20507;-88
2022/12/22 10:57:42;;;;;;;1.05;0.52;;;;;;;;;;5046173;28;20421;-88
2022/12/22 11:00:23;;;;;;;0.10;0.10;;;;;;;;;;5045012;28;20408;-88
2022/12/22 11:02:53;;;;;;;0.10;0.10;;;;;;;;;;5045070;28;20511;-87
2022/12/22 11:05:23;;;;;;;0.20;0.20;;;;;;;;;;5052623;28;20045;-88
2022/12/22 11:07:52;;;;;;;0.47;0.30;;;;;;;;;;5048042;28;20045;-88
2022/12/22 11:10:33;;;;;;;2.65;0.30;;;;;;;;;;5046862;28;20056;-88
2022/12/22 11:13:09;;;;;;;0.10;0.10;;;;;;;;;;5049129;28;20053;-90
2022/12/22 11:15:40;;;;;;;0.20;0.20;;;;;;;;;;5044527;28;20049;-88
2022/12/22 11:18:14;;;;;;;0.15;0.15;;;;;;;;;;5043098;28;20048;-90
2022/12/22 11:20:52;;;;;;;13.80;0.40;;;;;;;;;;5049135;28;20434;-87
2022/12/22 11:23:26;;;;;;;0.03;0.03;;;;;;;;;;5054142;28;20087;-89
2022/12/22 11:26:02;;;;;;;0.22;0.15;;;;;;;;;;5037949;28;20896;-88
2022/12/22 11:28:36;;;;;;;0.20;0.20;;;;;;;;;;5050050;28;20462;-87
2022/12/22 11:31:10;;;;;;;0.10;0.10;;;;;;;;;;5045832;28;20083;-88
2022/12/22 11:33:44;;;;;;;0.10;0.10;;;;;;;;;;5043579;28;20072;-88
2022/12/22 11:36:20;;;;;;;0.25;0.25;;;;;;;;;;5043118;28;20080;-88
2022/12/22 11:38:50;;;;;;;0.10;0.10;;;;;;;;;;5041767;28;20049;-87
2022/12/22 11:41:29;;;;;;;0.52;0.25;;;;;;;;;;5052214;28;20044;-87
2022/12/22 11:44:07;;;;;;;0.10;0.10;;;;;;;;;;5049266;28;20053;-88
2022/12/22 11:46:43;;;;;;;5.07;2.38;;;;;;;;;;5051445;28;20051;-88
2022/12/22 11:49:21;;;;;;;0.30;0.30;;;;;;;;;;5038910;28;20159;-88
2022/12/22 11:51:58;;;;;;;0.25;0.25;;;;;;;;;;5045854;28;20542;-88
2022/12/22 11:54:41;;;;;;;1.00;0.90;;;;;;;;;;5054441;28;20045;-89
2022/12/22 11:57:17;;;;;;;0.00;0.00;;;;;;;;;;5041021;28;20060;-88
2022/12/22 11:59:50;;;;;;;0.10;0.10;;;;;;;;;;5039939;28;20128;-88
2022/12/22 12:02:29;;;;;;;1.95;0.65;;;;;;;;;;5036148;28;20119;-88
2022/12/22 12:05:08;;;;;;;0.20;0.20;;;;;;;;;;5040585;28;20041;-90
2022/12/22 12:07:40;;;;;;;0.90;0.35;;;;;;;;;;5047667;28;20098;-88
2022/12/22 12:10:15;;;;;;;0.10;0.10;;;;;;;;;;5046551;28;20421;-89
2022/12/22 12:12:47;;;;;;;0.22;0.22;;;;;;;;;;5035024;28;20076;-88
2022/12/22 12:15:22;;;;;;;0.10;0.10;;;;;;;;;;5035940;28;20054;-88
2022/12/22 12:17:58;;;;;;;0.35;0.35;;;;;;;;;;5046337;28;20539;-91
2022/12/22 12:20:33;;;;;;;0.75;0.32;;;;;;;;;;5045466;28;20055;-89
2022/12/22 12:23:14;;;;;;;0.10;0.10;;;;;;;;;;5037717;28;20049;-89
2022/12/22 12:25:45;;;;;;;0.10;0.10;;;;;;;;;;5038919;28;20547;-89
2022/12/22 12:28:21;;;;;;;0.20;0.20;;;;;;;;;;5024332;28;20103;-88
2022/12/22 12:30:52;;;;;;;1.00;0.55;;;;;;;;;;5036545;28;20053;-89
2022/12/22 12:33:24;;;;;;;0.73;0.17;;;;;;;;;;5039635;28;20067;-88
2022/12/22 12:35:57;;;;;;;12.25;1.15;;;;;;;;;;5042551;28;20045;-88
2022/12/22 12:38:30;;;;;;;0.20;0.20;;;;;;;;;;5040649;28;20048;-89
2022/12/22 12:41:21;;;;;;;0.68;0.30;;;;;;;;;;5041680;28;20045;-89
2022/12/22 12:43:50;;;;;;;0.10;0.10;;;;;;;;;;5044733;28;20412;-87
2022/12/22 12:46:39;;;;;;;0.38;0.28;;;;;;;;;;5045540;28;20060;-88
2022/12/22 12:49:36;;;;;;;0.08;0.08;;;;;;;;;;5046022;28;20056;-89
2022/12/22 12:52:05;;;;;;;0.90;0.25;;;;;;;;;;5033859;28;20046;-89
2022/12/22 12:54:39;;;;;;;0.43;0.30;;;;;;;;;;5040834;28;20448;-89
2022/12/22 12:57:12;;;;;;;1.17;0.37;;;;;;;;;;5033154;28;20053;-89
2022/12/22 12:59:47;;;;;;;10.40;0.47;;;;;;;;;;5042593;28;20053;-90
2022/12/22 13:02:15;;;;;;;;;;;;;;;;;;5045085;28;20083;-91
2022/12/22 13:05:11;;;;;;;0.10;0.10;;;;;;;;;;5040286;28;19928;-89
2022/12/22 13:07:59;;;;;;;0.73;0.20;;;;;;;;;;5044934;28;20160;-90
2022/12/22 13:10:29;;;;;;;1.75;0.63;;;;;;;;;;5040782;28;20120;-90
2022/12/22 13:13:00;;;;;;;0.10;0.10;;;;;;;;;;5042186;28;20052;-91
2022/12/22 13:15:32;;;;;;;0.13;0.13;;;;;;;;;;5037747;28;20512;-90
2022/12/22 13:18:02;;;;;;;1.77;0.93;;;;;;;;;;5041442;28;20391;-90
2022/12/22 13:20:31;;;;;;;0.30;0.30;;;;;;;;;;5045385;28;20494;-89
2022/12/22 13:23:00;;;;;;;0.13;0.13;;;;;;;;;;5036172;28;20119;-90
2022/12/22 13:25:53;;;;;;;2.45;0.40;;;;;;;;;;5069843;28;20492;-90
2022/12/22 13:28:23;;;;;;;5.28;0.47;;;;;;;;;;5051860;28;20124;-89
2022/12/22 13:30:53;;;;;;;1.33;0.35;;;;;;;;;;5048272;28;20107;-88
2022/12/22 13:33:25;;;;;;;0.20;0.20;;;;;;;;;;5045927;28;20061;-90
2022/12/22 13:35:53;;;;;;;0.47;0.40;;;;;;;;;;5046895;28;20113;-88
2022/12/22 13:38:27;;;;;;;0.10;0.10;;;;;;;;;;5047388;28;20052;-88
2022/12/22 13:40:58;;;;;;;1.40;1.30;;;;;;;;;;5059158;28;20049;-88
2022/12/22 13:43:27;;;;;;;2.42;0.35;;;;;;;;;;5068709;28;20060;-89
2022/12/22 13:45:57;;;;;;;0.10;0.10;;;;;;;;;;5072121;28;20392;-90
2022/12/22 13:48:29;;;;;;;3.25;0.22;;;;;;;;;;5069150;28;20067;-93
2022/12/22 13:50:58;;;;;;;0.40;0.40;;;;;;;;;;5069720;28;20044;-91
2022/12/22 13:53:31;;;;;;;0.30;0.30;;;;;;;;;;5070757;28;20052;-91
2022/12/22 13:56:24;;;;;;;1.17;0.30;;;;;;;;;;5063102;28;20406;-90
2022/12/22 13:58:56;;;;;;;0.20;0.20;;;;;;;;;;5058517;28;20435;-91
2022/12/22 14:01:25;;;;;;;0.20;0.20;;;;;;;;;;5061300;28;20131;-92
2022/12/22 14:03:56;;;;;;;0.75;0.60;;;;;;;;;;5069511;28;20052;-88
2022/12/22 14:06:29;;;;;;;0.25;0.25;;;;;;;;;;5072543;28;20071;-90
2022/12/22 14:09:10;;;;;;;2.35;1.00;;;;;;;;;;5066294;28;20048;-92
2022/12/22 14:11:40;;;;;;;3.90;0.43;;;;;;;;;;5079356;28;20516;-89
2022/12/22 14:14:18;;;;;;;0.15;0.15;;;;;;;;;;5074872;28;20057;-90
2022/12/22 14:16:49;;;;;;;0.10;0.10;;;;;;;;;;5072380;28;20057;-92
2022/12/22 14:19:18;;;;;;;1.02;0.43;;;;;;;;;;5078822;28;20132;-91
2022/12/22 14:21:48;;;;;;;0.25;0.20;;;;;;;;;;5068794;28;20398;-88
2022/12/22 14:24:18;;;;;;;0.50;0.50;;;;;;;;;;5068414;28;20056;-89
2022/12/22 14:26:48;;;;;;;0.98;0.20;;;;;;;;;;5065593;28;20063;-92
2022/12/22 14:29:18;;;;;;;7.63;0.40;;;;;;;;;;5064918;28;20080;-91
2022/12/22 14:31:53;;;;;;;0.20;0.20;;;;;;;;;;5066938;28;20453;-87
2022/12/22 14:34:26;;;;;;;1.65;0.82;;;;;;;;;;5076786;28;20045;-90
2022/12/22 14:36:54;;;;;;;6.15;0.63;;;;;;;;;;5054136;28;20056;-90
2022/12/22 14:39:24;;;;;;;1.65;0.30;;;;;;;;;;5062652;28;20046;-87
2022/12/22 14:41:54;;;;;;;4.57;0.28;;;;;;;;;;5055275;28;20107;-88
2022/12/22 14:44:24;;;;;;;0.10;0.10;;;;;;;;;;5057198;28;20045;-91
2022/12/22 14:47:14;;;;;;;0.15;0.15;;;;;;;;;;5053940;28;20076;-90
2022/12/22 14:49:51;;;;;;;0.15;0.15;;;;;;;;;;5058623;28;20045;-86
2022/12/22 14:52:21;;;;;;;1.23;1.13;;;;;;;;;;5057014;28;20147;-88
2022/12/22 14:54:51;;;;;;;1.10;0.20;;;;;;;;;;5069484;28;20049;-87
2022/12/22 14:57:25;;;;;;;0.90;0.40;;;;;;;;;;5051389;28;20113;-87
2022/12/22 15:00:01;;;;;;;0.10;0.10;;;;;;;;;;5064150;28;20060;-88
2022/12/22 15:02:32;;;;;;;0.28;0.25;;;;;;;;;;5065944;28;20127;-88
2022/12/22 15:05:11;;;;;;;6.72;0.43;;;;;;;;;;5060246;28;20123;-88
2022/12/22 15:07:47;;;;;;;0.30;0.30;;;;;;;;;;5063923;28;20093;-91
2022/12/22 15:10:38;;;;;;;0.10;0.10;;;;;;;;;;5058498;28;20073;-88
2022/12/22 15:13:11;;;;;;;3.40;0.35;;;;;;;;;;5049553;28;20063;-89
2022/12/22 15:15:39;;;;;;;3.35;0.30;;;;;;;;;;5056240;28;20061;-88
2022/12/22 15:18:12;;;;;;;0.20;0.20;;;;;;;;;;5052647;28;20203;-88
2022/12/22 15:20:41;;;;;;;0.28;0.20;;;;;;;;;;5050595;28;20902;-88
2022/12/22 15:23:11;;;;;;;0.82;0.55;;;;;;;;;;5053064;28;20049;-89
2022/12/22 15:25:39;;;;;;;2.35;0.65;;;;;;;;;;5057780;28;20102;-85
2022/12/22 15:28:09;;;;;;;5.60;0.52;;;;;;;;;;5045764;28;20057;-90
2022/12/22 15:30:38;;;;;;;12.48;0.60;;;;;;;;;;5056048;28;20523;-90
2022/12/22 15:33:11;;;;;;;2.05;0.52;;;;;;;;;;5050205;28;20286;-90
2022/12/22 15:35:40;;;;;;;0.88;0.80;;;;;;;;;;5054621;28;20078;-88
2022/12/22 15:38:11;;;;;;;0.10;0.10;;;;;;;;;;5038304;28;20125;-90
2022/12/22 15:40:39;;;;;;;0.88;0.35;;;;;;;;;;5047222;28;20139;-90
2022/12/22 15:43:09;;;;;;;0.85;0.40;;;;;;;;;;5052466;28;20049;-90
2022/12/22 15:45:56;;;;;;;0.98;0.55;;;;;;;;;;5054894;28;20040;-90
2022/12/22 15:48:27;;;;;;;0.52;0.40;;;;;;;;;;5048424;28;20471;-91
2022/12/22 15:50:56;;;;;;;0.20;0.20;;;;;;;;;;5048550;28;20060;-90
2022/12/22 15:53:24;;;;;;;0.98;0.28;;;;;;;;;;5053726;28;20049;-90
2022/12/22 15:55:53;;;;;;;0.55;0.30;;;;;;;;;;5042177;28;20053;-89
2022/12/22 15:58:24;;;;;;;0.77;0.40;;;;;;;;;;5045890;28;20128;-86
2022/12/22 16:00:53;;;;;;;0.10;0.10;;;;;;;;;;5049767;28;20041;-91
2022/12/22 16:03:22;;;;;;;1.73;0.30;;;;;;;;;;5057387;28;20052;-90
2022/12/22 16:05:51;;;;;;;4.60;0.20;;;;;;;;;;5061204;28;20044;-87
2022/12/22 16:08:21;;;;;;;1.55;0.50;;;;;;;;;;5050897;28;20069;-88
2022/12/22 16:10:50;;;;;;;1.73;1.00;;;;;;;;;;5041683;28;20052;-90
2022/12/22 16:13:20;;;;;;;6.43;0.43;;;;;;;;;;5051485;28;20115;-90
2022/12/22 16:15:50;;;;;;;1.00;0.50;;;;;;;;;;5041230;28;20056;-88
2022/12/22 16:18:18;;;;;;;0.55;0.30;;;;;;;;;;5057599;28;20054;-89
2022/12/22 16:20:48;;;;;;;0.75;0.30;;;;;;;;;;5046354;28;20049;-86
2022/12/22 16:23:18;;;;;;;0.47;0.47;;;;;;;;;;5049617;28;20071;-89
2022/12/22 16:25:47;;;;;;;0.85;0.30;;;;;;;;;;5049725;28;20056;-91
2022/12/22 16:28:19;;;;;;;0.08;0.08;;;;;;;;;;5049871;28;20125;-89
2022/12/22 16:30:48;;;;;;;1.25;0.40;;;;;;;;;;5049552;28;20100;-89
2022/12/22 16:33:18;;;;;;;0.00;0.00;;;;;;;;;;5048917;28;20037;-89
2022/12/22 16:35:46;;;;;;;3.50;1.05;;;;;;;;;;5049564;28;20053;-85
2022/12/22 16:38:17;;;;;;;0.10;0.10;;;;;;;;;;5059120;28;20110;-88
2022/12/22 16:40:48;;;;;;;4.07;1.10;;;;;;;;;;5057630;28;20041;-90
2022/12/22 16:43:20;;;;;;;0.43;0.40;;;;;;;;;;5051003;28;20545;-88
2022/12/22 16:46:06;;;;;;;0.98;0.40;;;;;;;;;;5064548;28;20047;-86
2022/12/22 16:48:41;;;;;;;2.38;0.63;;;;;;;;;;5051633;28;20103;-87
2022/12/22 16:51:09;;;;;;;;;;;;;;;;;;5051316;28;20049;-88
2022/12/22 16:53:38;;;;;;;8.00;0.57;;;;;;;;;;5056833;28;20122;-89
2022/12/22 16:56:07;;;;;;;0.00;0.00;;;;;;;;;;5057323;28;20053;-88
2022/12/22 16:58:35;;;;;;;0.10;0.10;;;;;;;;;;5047279;28;20099;-88
2022/12/22 17:01:03;;;;;;;1.30;0.93;;;;;;;;;;5050466;28;20056;-87
2022/12/22 17:03:32;;;;;;;4.78;0.40;;;;;;;;;;5052334;28;20063;-89
2022/12/22 17:06:03;;;;;;;1.02;0.25;;;;;;;;;;5051677;28;20044;-88
2022/12/22 17:08:34;;;;;;;0.82;0.30;;;;;;;;;;5041656;28;20106;-86
2022/12/22 17:11:04;;;;;;;0.13;0.13;;;;;;;;;;5054457;28;20045;-87
2022/12/22 17:13:39;;;;;;;0.10;0.10;;;;;;;;;;5046474;28;20042;-88
2022/12/22 17:16:07;;;;;;;6.22;0.70;;;;;;;;;;5051765;28;20404;-87
2022/12/22 17:18:36;;;;;;;6.18;0.45;;;;;;;;;;5050958;28;20075;-88
2022/12/22 17:21:06;;;;;;;1.23;0.38;;;;;;;;;;5055589;28;20040;-86
2022/12/22 17:23:40;;;;;;;1.95;1.67;;;;;;;;;;5045492;28;20071;-91
2022/12/22 17:26:11;;;;;;;0.20;0.20;;;;;;;;;;5054913;28;20051;-86
2022/12/22 17:28:40;;;;;;;2.80;0.60;;;;;;;;;;5054500;28;20135;-87
2022/12/22 17:31:11;;;;;;;1.17;0.52;;;;;;;;;;5058209;28;20055;-88
2022/12/22 17:33:39;;;;;;;0.20;0.20;;;;;;;;;;5058430;28;20080;-87
2022/12/22 17:36:13;;;;;;;0.10;0.10;;;;;;;;;;5069321;28;20136;-87
2022/12/22 17:38:46;;;;;;;0.73;0.30;;;;;;;;;;5053366;28;20056;-85
2022/12/22 17:41:16;;;;;;;0.20;0.20;;;;;;;;;;5046021;28;20041;-87
2022/12/22 17:43:45;;;;;;;0.28;0.13;;;;;;;;;;5053431;28;20061;-88
2022/12/22 17:46:15;;;;;;;0.20;0.20;;;;;;;;;;5071945;28;20127;-87
2022/12/22 17:48:43;;;;;;;0.30;0.20;;;;;;;;;;5043878;28;20571;-88
2022/12/22 17:51:18;;;;;;;0.70;0.30;;;;;;;;;;5050832;28;20044;-88
2022/12/22 17:53:46;;;;;;;0.60;0.57;;;;;;;;;;5067774;28;20060;-87
2022/12/22 17:56:16;;;;;;;3.67;0.17;;;;;;;;;;5064103;28;20678;-88
2022/12/22 17:58:45;;;;;;;4.07;0.40;;;;;;;;;;5055113;28;20106;-90
2022/12/22 18:01:23;;;;;;;1.48;0.75;;;;;;;;;;5066754;28;20055;-91
2022/12/22 18:03:52;;;;;;;0.20;0.17;;;;;;;;;;5046152;28;20045;-84
2022/12/22 18:06:23;;;;;;;2.65;0.32;;;;;;;;;;5053949;28;20552;-85
2022/12/22 18:08:52;;;;;;;1.40;1.02;;;;;;;;;;5048367;28;20063;-85
2022/12/22 18:11:21;;;;;;;0.88;0.68;;;;;;;;;;5048808;28;20509;-87
2022/12/22 18:13:50;;;;;;;0.70;0.05;;;;;;;;;;5054266;28;20045;-89
2022/12/22 18:16:19;;;;;;;2.08;0.25;;;;;;;;;;5055850;28;20091;-88
2022/12/22 18:18:47;;;;;;;0.70;0.70;;;;;;;;;;5061600;28;20053;-89
2022/12/22 18:21:17;;;;;;;0.93;0.30;;;;;;;;;;5061195;28;20417;-93
2022/12/22 18:23:47;;;;;;;1.67;0.90;;;;;;;;;;5060071;28;20055;-88
2022/12/22 18:26:20;;;;;;;0.13;0.13;;;;;;;;;;5063448;28;20079;-87
2022/12/22 18:28:49;;;;;;;0.80;0.35;;;;;;;;;;5059254;28;20158;-86
2022/12/22 18:31:18;;;;;;;0.30;0.30;;;;;;;;;;5047648;28;20045;-87
2022/12/22 18:33:46;;;;;;;7.50;0.50;;;;;;;;;;5061474;28;20073;-89
2022/12/22 18:36:17;;;;;;;0.20;0.13;;;;;;;;;;5055474;28;20199;-88
2022/12/22 18:38:47;;;;;;;0.30;0.20;;;;;;;;;;5053715;28;20047;-87
2022/12/22 18:41:17;;;;;;;0.10;0.10;;;;;;;;;;5063470;28;20127;-85
2022/12/22 18:43:46;;;;;;;0.20;0.20;;;;;;;;;;5047786;28;20128;-87